Weather at Simón Bolívar International Airport

Public forecast

Using degrees Celsius for public forecast. Weather courtesy of forecast.io.

Current aviation weather report (METAR) for Simón Bolívar International Airport

Report is more than 6 hours old.

Retrieved 2022/09/17 19:00 UTC (14 days ago):

SVMI 171900Z 09006 9999 TS B013CE 28/25 Q1011

Aviation forecast (TAF) for Simón Bolívar International Airport

Forecast is more than 12 hours old.

Retrieved 2022/09/17 12:00 UTC (14 days ago):

TAF SVMI 171000Z 1712/1812 00000KT 9999 FEW016 TX32/1718Z TN21/1807Z TEMPO 1715/1720 09008KT 9000 -DZ SCT016 SCT070